sensor_id;sensor_type;location;lat;lon;timestamp;P1;durP1;ratioP1;P2;durP2;ratioP2
62832;SDS011;48891;49.220;6.920;2024-02-26T00:01:32;17.40;;;12.45;;
62832;SDS011;48891;49.220;6.920;2024-02-26T00:03:57;17.73;;;13.18;;
62832;SDS011;48891;49.220;6.920;2024-02-26T00:06:22;18.20;;;13.20;;
62832;SDS011;48891;49.220;6.920;2024-02-26T00:08:47;18.52;;;13.70;;
62832;SDS011;48891;49.220;6.920;2024-02-26T00:11:13;16.88;;;13.30;;
62832;SDS011;48891;49.220;6.920;2024-02-26T00:13:38;20.60;;;14.10;;
62832;SDS011;48891;49.220;6.920;2024-02-26T00:16:03;20.48;;;14.27;;
62832;SDS011;48891;49.220;6.920;2024-02-26T00:18:29;19.45;;;14.15;;
62832;SDS011;48891;49.220;6.920;2024-02-26T00:20:54;19.40;;;13.98;;
62832;SDS011;48891;49.220;6.920;2024-02-26T00:23:19;20.30;;;14.50;;
62832;SDS011;48891;49.220;6.920;2024-02-26T00:25:45;18.27;;;14.10;;
62832;SDS011;48891;49.220;6.920;2024-02-26T00:28:10;17.85;;;13.68;;
62832;SDS011;48891;49.220;6.920;2024-02-26T00:30:35;20.23;;;14.80;;
62832;SDS011;48891;49.220;6.920;2024-02-26T00:33:01;16.98;;;13.20;;
62832;SDS011;48891;49.220;6.920;2024-02-26T00:35:26;16.70;;;13.68;;
62832;SDS011;48891;49.220;6.920;2024-02-26T00:37:51;19.83;;;13.82;;
62832;SDS011;48891;49.220;6.920;2024-02-26T00:40:16;19.25;;;13.88;;
62832;SDS011;48891;49.220;6.920;2024-02-26T00:42:42;20.33;;;14.68;;
62832;SDS011;48891;49.220;6.920;2024-02-26T00:45:07;20.63;;;14.98;;
62832;SDS011;48891;49.220;6.920;2024-02-26T00:47:32;17.50;;;13.80;;
62832;SDS011;48891;49.220;6.920;2024-02-26T00:49:58;20.00;;;14.07;;
62832;SDS011;48891;49.220;6.920;2024-02-26T00:52:23;19.63;;;14.43;;
62832;SDS011;48891;49.220;6.920;2024-02-26T00:54:48;18.50;;;14.60;;
62832;SDS011;48891;49.220;6.920;2024-02-26T00:57:13;19.55;;;13.95;;
62832;SDS011;48891;49.220;6.920;2024-02-26T00:59:39;20.67;;;14.68;;
62832;SDS011;48891;49.220;6.920;2024-02-26T01:02:04;19.10;;;14.05;;
62832;SDS011;48891;49.220;6.920;2024-02-26T01:04:29;19.98;;;14.75;;
62832;SDS011;48891;49.220;6.920;2024-02-26T01:06:54;19.13;;;14.85;;
62832;SDS011;48891;49.220;6.920;2024-02-26T01:09:20;21.15;;;15.07;;
62832;SDS011;48891;49.220;6.920;2024-02-26T01:11:45;19.10;;;14.48;;
62832;SDS011;48891;49.220;6.920;2024-02-26T01:14:10;20.67;;;15.45;;
62832;SDS011;48891;49.220;6.920;2024-02-26T01:16:35;21.38;;;15.27;;
62832;SDS011;48891;49.220;6.920;2024-02-26T01:19:00;19.20;;;14.32;;
62832;SDS011;48891;49.220;6.920;2024-02-26T01:21:26;24.00;;;16.35;;
62832;SDS011;48891;49.220;6.920;2024-02-26T01:23:51;20.63;;;14.98;;
62832;SDS011;48891;49.220;6.920;2024-02-26T01:26:16;20.58;;;14.77;;
62832;SDS011;48891;49.220;6.920;2024-02-26T01:28:41;20.38;;;15.02;;
62832;SDS011;48891;49.220;6.920;2024-02-26T01:31:07;23.35;;;15.63;;
62832;SDS011;48891;49.220;6.920;2024-02-26T01:33:34;20.17;;;14.98;;
62832;SDS011;48891;49.220;6.920;2024-02-26T01:35:59;21.73;;;15.60;;
62832;SDS011;48891;49.220;6.920;2024-02-26T01:38:24;21.80;;;15.82;;
62832;SDS011;48891;49.220;6.920;2024-02-26T01:40:50;21.13;;;15.40;;
62832;SDS011;48891;49.220;6.920;2024-02-26T01:43:15;22.75;;;16.17;;
62832;SDS011;48891;49.220;6.920;2024-02-26T01:45:40;19.98;;;14.90;;
62832;SDS011;48891;49.220;6.920;2024-02-26T01:48:05;21.00;;;15.38;;
62832;SDS011;48891;49.220;6.920;2024-02-26T01:50:31;22.98;;;16.15;;
62832;SDS011;48891;49.220;6.920;2024-02-26T01:52:57;21.83;;;15.70;;
62832;SDS011;48891;49.220;6.920;2024-02-26T01:55:23;23.58;;;16.20;;
62832;SDS011;48891;49.220;6.920;2024-02-26T01:57:50;22.52;;;15.80;;
62832;SDS011;48891;49.220;6.920;2024-02-26T02:00:17;19.13;;;14.82;;
62832;SDS011;48891;49.220;6.920;2024-02-26T02:02:43;20.55;;;14.98;;
62832;SDS011;48891;49.220;6.920;2024-02-26T02:05:09;22.65;;;16.00;;
62832;SDS011;48891;49.220;6.920;2024-02-26T02:07:35;22.17;;;15.73;;
62832;SDS011;48891;49.220;6.920;2024-02-26T02:10:01;22.33;;;16.00;;
62832;SDS011;48891;49.220;6.920;2024-02-26T02:12:26;19.52;;;14.95;;
62832;SDS011;48891;49.220;6.920;2024-02-26T02:14:52;21.90;;;16.20;;
62832;SDS011;48891;49.220;6.920;2024-02-26T02:17:17;22.40;;;16.10;;
62832;SDS011;48891;49.220;6.920;2024-02-26T02:19:43;22.38;;;16.42;;
62832;SDS011;48891;49.220;6.920;2024-02-26T02:22:08;22.70;;;16.17;;
62832;SDS011;48891;49.220;6.920;2024-02-26T02:24:34;22.35;;;16.50;;
62832;SDS011;48891;49.220;6.920;2024-02-26T02:26:59;23.42;;;16.90;;
62832;SDS011;48891;49.220;6.920;2024-02-26T02:29:24;24.13;;;16.85;;
62832;SDS011;48891;49.220;6.920;2024-02-26T02:31:50;22.23;;;15.98;;
62832;SDS011;48891;49.220;6.920;2024-02-26T02:34:15;24.02;;;16.08;;
62832;SDS011;48891;49.220;6.920;2024-02-26T02:36:53;23.38;;;16.67;;
62832;SDS011;48891;49.220;6.920;2024-02-26T02:39:19;22.08;;;16.13;;
62832;SDS011;48891;49.220;6.920;2024-02-26T02:41:44;21.10;;;15.77;;
62832;SDS011;48891;49.220;6.920;2024-02-26T02:44:09;21.55;;;16.10;;
62832;SDS011;48891;49.220;6.920;2024-02-26T02:46:35;23.55;;;16.92;;
62832;SDS011;48891;49.220;6.920;2024-02-26T02:49:00;23.60;;;17.27;;
62832;SDS011;48891;49.220;6.920;2024-02-26T02:51:26;22.00;;;16.23;;
62832;SDS011;48891;49.220;6.920;2024-02-26T02:53:51;24.80;;;17.33;;
62832;SDS011;48891;49.220;6.920;2024-02-26T02:56:16;22.83;;;16.42;;
62832;SDS011;48891;49.220;6.920;2024-02-26T02:58:42;23.35;;;16.70;;
62832;SDS011;48891;49.220;6.920;2024-02-26T03:01:07;22.80;;;16.33;;
62832;SDS011;48891;49.220;6.920;2024-02-26T03:03:32;23.02;;;16.90;;
62832;SDS011;48891;49.220;6.920;2024-02-26T03:05:58;24.48;;;16.45;;
62832;SDS011;48891;49.220;6.920;2024-02-26T03:08:23;21.35;;;16.20;;
62832;SDS011;48891;49.220;6.920;2024-02-26T03:10:49;23.27;;;17.05;;
62832;SDS011;48891;49.220;6.920;2024-02-26T03:13:14;25.45;;;17.63;;
62832;SDS011;48891;49.220;6.920;2024-02-26T03:15:39;23.33;;;17.73;;
62832;SDS011;48891;49.220;6.920;2024-02-26T03:18:04;22.90;;;16.65;;
62832;SDS011;48891;49.220;6.920;2024-02-26T03:20:30;22.13;;;16.00;;
62832;SDS011;48891;49.220;6.920;2024-02-26T03:22:55;22.20;;;17.50;;
62832;SDS011;48891;49.220;6.920;2024-02-26T03:25:20;24.30;;;17.58;;
62832;SDS011;48891;49.220;6.920;2024-02-26T03:27:45;24.98;;;16.67;;
62832;SDS011;48891;49.220;6.920;2024-02-26T03:30:11;23.23;;;16.98;;
62832;SDS011;48891;49.220;6.920;2024-02-26T03:32:36;24.33;;;17.33;;
62832;SDS011;48891;49.220;6.920;2024-02-26T03:35:01;23.52;;;16.80;;
62832;SDS011;48891;49.220;6.920;2024-02-26T03:37:26;24.73;;;17.20;;
62832;SDS011;48891;49.220;6.920;2024-02-26T03:39:51;24.27;;;17.90;;
62832;SDS011;48891;49.220;6.920;2024-02-26T03:42:17;25.42;;;18.25;;
62832;SDS011;48891;49.220;6.920;2024-02-26T03:44:42;25.48;;;17.77;;
62832;SDS011;48891;49.220;6.920;2024-02-26T03:47:07;25.35;;;18.25;;
62832;SDS011;48891;49.220;6.920;2024-02-26T03:49:32;23.85;;;17.60;;
62832;SDS011;48891;49.220;6.920;2024-02-26T03:51:58;24.38;;;18.50;;
62832;SDS011;48891;49.220;6.920;2024-02-26T03:54:23;26.33;;;17.45;;
62832;SDS011;48891;49.220;6.920;2024-02-26T03:56:48;23.83;;;18.27;;
62832;SDS011;48891;49.220;6.920;2024-02-26T03:59:13;24.52;;;18.13;;
62832;SDS011;48891;49.220;6.920;2024-02-26T04:01:39;23.42;;;17.15;;
62832;SDS011;48891;49.220;6.920;2024-02-26T04:04:04;24.33;;;17.48;;
62832;SDS011;48891;49.220;6.920;2024-02-26T04:06:29;23.55;;;17.42;;
62832;SDS011;48891;49.220;6.920;2024-02-26T04:08:54;25.90;;;18.27;;
62832;SDS011;48891;49.220;6.920;2024-02-26T04:11:20;22.83;;;16.92;;
62832;SDS011;48891;49.220;6.920;2024-02-26T04:13:46;23.40;;;17.15;;
62832;SDS011;48891;49.220;6.920;2024-02-26T04:16:11;25.20;;;17.55;;
62832;SDS011;48891;49.220;6.920;2024-02-26T04:18:37;25.23;;;17.10;;
62832;SDS011;48891;49.220;6.920;2024-02-26T04:21:02;24.13;;;17.35;;
62832;SDS011;48891;49.220;6.920;2024-02-26T04:23:28;25.65;;;18.05;;
62832;SDS011;48891;49.220;6.920;2024-02-26T04:25:53;25.08;;;18.30;;
62832;SDS011;48891;49.220;6.920;2024-02-26T04:28:18;25.73;;;18.23;;
62832;SDS011;48891;49.220;6.920;2024-02-26T04:30:44;24.90;;;17.25;;
62832;SDS011;48891;49.220;6.920;2024-02-26T04:33:09;26.00;;;17.98;;
62832;SDS011;48891;49.220;6.920;2024-02-26T04:35:34;25.15;;;17.30;;
62832;SDS011;48891;49.220;6.920;2024-02-26T04:37:59;24.85;;;17.70;;
62832;SDS011;48891;49.220;6.920;2024-02-26T04:40:25;27.63;;;18.33;;
62832;SDS011;48891;49.220;6.920;2024-02-26T04:42:50;24.10;;;16.73;;
62832;SDS011;48891;49.220;6.920;2024-02-26T04:45:15;26.15;;;18.10;;
62832;SDS011;48891;49.220;6.920;2024-02-26T04:47:40;26.30;;;18.50;;
62832;SDS011;48891;49.220;6.920;2024-02-26T04:50:06;26.42;;;18.48;;
62832;SDS011;48891;49.220;6.920;2024-02-26T04:52:31;25.77;;;17.42;;
62832;SDS011;48891;49.220;6.920;2024-02-26T04:54:56;24.92;;;17.55;;
62832;SDS011;48891;49.220;6.920;2024-02-26T04:57:22;27.23;;;18.33;;
62832;SDS011;48891;49.220;6.920;2024-02-26T04:59:47;23.90;;;17.00;;
62832;SDS011;48891;49.220;6.920;2024-02-26T05:02:13;24.27;;;17.20;;
62832;SDS011;48891;49.220;6.920;2024-02-26T05:04:38;26.75;;;18.33;;
62832;SDS011;48891;49.220;6.920;2024-02-26T05:07:04;26.15;;;18.58;;
62832;SDS011;48891;49.220;6.920;2024-02-26T05:09:29;26.88;;;18.73;;
62832;SDS011;48891;49.220;6.920;2024-02-26T05:11:54;25.25;;;16.95;;
62832;SDS011;48891;49.220;6.920;2024-02-26T05:14:20;25.65;;;17.95;;
62832;SDS011;48891;49.220;6.920;2024-02-26T05:16:45;25.63;;;18.73;;
62832;SDS011;48891;49.220;6.920;2024-02-26T05:19:11;26.70;;;18.17;;
62832;SDS011;48891;49.220;6.920;2024-02-26T05:21:36;25.48;;;17.92;;
62832;SDS011;48891;49.220;6.920;2024-02-26T05:24:02;24.83;;;17.58;;
62832;SDS011;48891;49.220;6.920;2024-02-26T05:26:27;24.25;;;16.85;;
62832;SDS011;48891;49.220;6.920;2024-02-26T05:28:52;25.55;;;17.25;;
62832;SDS011;48891;49.220;6.920;2024-02-26T05:31:17;23.65;;;17.42;;
62832;SDS011;48891;49.220;6.920;2024-02-26T05:33:43;24.77;;;17.52;;
62832;SDS011;48891;49.220;6.920;2024-02-26T05:36:08;22.80;;;16.63;;
62832;SDS011;48891;49.220;6.920;2024-02-26T05:38:33;24.17;;;16.48;;
62832;SDS011;48891;49.220;6.920;2024-02-26T05:40:59;23.23;;;16.33;;
62832;SDS011;48891;49.220;6.920;2024-02-26T05:43:27;22.50;;;16.02;;
62832;SDS011;48891;49.220;6.920;2024-02-26T05:45:53;23.55;;;16.30;;
62832;SDS011;48891;49.220;6.920;2024-02-26T05:48:18;23.90;;;17.38;;
62832;SDS011;48891;49.220;6.920;2024-02-26T05:50:44;26.45;;;17.27;;
62832;SDS011;48891;49.220;6.920;2024-02-26T05:53:10;24.80;;;17.00;;
62832;SDS011;48891;49.220;6.920;2024-02-26T05:55:35;25.63;;;17.95;;
62832;SDS011;48891;49.220;6.920;2024-02-26T05:58:00;22.65;;;16.33;;
62832;SDS011;48891;49.220;6.920;2024-02-26T06:00:25;24.38;;;17.02;;
62832;SDS011;48891;49.220;6.920;2024-02-26T06:02:51;23.92;;;16.45;;
62832;SDS011;48891;49.220;6.920;2024-02-26T06:05:16;24.00;;;17.23;;
62832;SDS011;48891;49.220;6.920;2024-02-26T06:07:41;23.70;;;17.35;;
62832;SDS011;48891;49.220;6.920;2024-02-26T06:10:06;24.40;;;17.50;;
62832;SDS011;48891;49.220;6.920;2024-02-26T06:12:34;25.90;;;17.50;;
62832;SDS011;48891;49.220;6.920;2024-02-26T06:15:00;24.52;;;17.48;;
62832;SDS011;48891;49.220;6.920;2024-02-26T06:17:25;24.20;;;16.77;;
62832;SDS011;48891;49.220;6.920;2024-02-26T06:19:51;23.77;;;16.88;;
62832;SDS011;48891;49.220;6.920;2024-02-26T06:22:16;22.55;;;16.48;;
62832;SDS011;48891;49.220;6.920;2024-02-26T06:24:41;23.95;;;16.30;;
62832;SDS011;48891;49.220;6.920;2024-02-26T06:27:06;24.55;;;17.38;;
62832;SDS011;48891;49.220;6.920;2024-02-26T06:29:32;25.25;;;18.13;;
62832;SDS011;48891;49.220;6.920;2024-02-26T06:31:57;24.60;;;16.88;;
62832;SDS011;48891;49.220;6.920;2024-02-26T06:34:22;23.52;;;16.95;;
62832;SDS011;48891;49.220;6.920;2024-02-26T06:36:47;24.25;;;16.77;;
62832;SDS011;48891;49.220;6.920;2024-02-26T06:39:12;24.58;;;17.10;;
62832;SDS011;48891;49.220;6.920;2024-02-26T06:41:38;22.83;;;15.30;;
62832;SDS011;48891;49.220;6.920;2024-02-26T06:44:03;26.67;;;17.75;;
62832;SDS011;48891;49.220;6.920;2024-02-26T06:46:28;25.85;;;17.73;;
62832;SDS011;48891;49.220;6.920;2024-02-26T06:48:54;24.92;;;17.38;;
62832;SDS011;48891;49.220;6.920;2024-02-26T06:51:19;24.25;;;16.90;;
62832;SDS011;48891;49.220;6.920;2024-02-26T06:53:44;23.17;;;16.65;;
62832;SDS011;48891;49.220;6.920;2024-02-26T06:56:09;23.25;;;17.35;;
62832;SDS011;48891;49.220;6.920;2024-02-26T06:58:35;25.60;;;17.40;;
62832;SDS011;48891;49.220;6.920;2024-02-26T07:01:00;23.42;;;16.48;;
62832;SDS011;48891;49.220;6.920;2024-02-26T07:03:25;24.15;;;16.60;;
62832;SDS011;48891;49.220;6.920;2024-02-26T07:05:51;24.05;;;16.35;;
62832;SDS011;48891;49.220;6.920;2024-02-26T07:08:16;24.05;;;16.73;;
62832;SDS011;48891;49.220;6.920;2024-02-26T07:10:41;22.98;;;16.77;;
62832;SDS011;48891;49.220;6.920;2024-02-26T07:13:07;21.83;;;16.58;;
62832;SDS011;48891;49.220;6.920;2024-02-26T07:15:32;24.00;;;17.88;;
62832;SDS011;48891;49.220;6.920;2024-02-26T07:17:57;24.35;;;17.05;;
62832;SDS011;48891;49.220;6.920;2024-02-26T07:20:22;25.48;;;17.58;;
62832;SDS011;48891;49.220;6.920;2024-02-26T07:22:48;22.50;;;16.52;;
62832;SDS011;48891;49.220;6.920;2024-02-26T07:25:13;26.35;;;16.95;;
62832;SDS011;48891;49.220;6.920;2024-02-26T07:27:41;24.40;;;17.10;;
62832;SDS011;48891;49.220;6.920;2024-02-26T07:30:06;24.77;;;17.00;;
62832;SDS011;48891;49.220;6.920;2024-02-26T07:32:32;22.85;;;16.50;;
62832;SDS011;48891;49.220;6.920;2024-02-26T07:34:57;23.48;;;17.42;;
62832;SDS011;48891;49.220;6.920;2024-02-26T07:37:22;23.10;;;16.40;;
62832;SDS011;48891;49.220;6.920;2024-02-26T07:39:48;24.63;;;17.27;;
62832;SDS011;48891;49.220;6.920;2024-02-26T07:42:13;24.95;;;17.40;;
62832;SDS011;48891;49.220;6.920;2024-02-26T07:44:38;25.10;;;17.58;;
62832;SDS011;48891;49.220;6.920;2024-02-26T07:47:03;23.98;;;16.75;;
62832;SDS011;48891;49.220;6.920;2024-02-26T07:49:29;23.38;;;16.23;;
62832;SDS011;48891;49.220;6.920;2024-02-26T07:51:54;23.83;;;17.15;;
62832;SDS011;48891;49.220;6.920;2024-02-26T07:54:19;22.25;;;16.25;;
62832;SDS011;48891;49.220;6.920;2024-02-26T07:56:45;23.67;;;16.77;;
62832;SDS011;48891;49.220;6.920;2024-02-26T07:59:10;23.55;;;16.48;;
62832;SDS011;48891;49.220;6.920;2024-02-26T08:01:35;23.23;;;16.05;;
62832;SDS011;48891;49.220;6.920;2024-02-26T08:04:00;20.40;;;15.60;;
62832;SDS011;48891;49.220;6.920;2024-02-26T08:06:26;23.98;;;16.65;;
62832;SDS011;48891;49.220;6.920;2024-02-26T08:08:51;26.50;;;17.65;;
62832;SDS011;48891;49.220;6.920;2024-02-26T08:11:16;23.40;;;16.73;;
62832;SDS011;48891;49.220;6.920;2024-02-26T08:13:41;22.92;;;17.02;;
62832;SDS011;48891;49.220;6.920;2024-02-26T08:16:07;23.70;;;17.02;;
62832;SDS011;48891;49.220;6.920;2024-02-26T08:18:32;23.77;;;15.98;;
62832;SDS011;48891;49.220;6.920;2024-02-26T08:20:57;24.50;;;16.85;;
62832;SDS011;48891;49.220;6.920;2024-02-26T08:23:23;22.90;;;16.08;;
62832;SDS011;48891;49.220;6.920;2024-02-26T08:25:48;21.88;;;15.75;;
62832;SDS011;48891;49.220;6.920;2024-02-26T08:28:13;22.90;;;16.42;;
62832;SDS011;48891;49.220;6.920;2024-02-26T08:30:38;24.55;;;16.75;;
62832;SDS011;48891;49.220;6.920;2024-02-26T08:33:04;24.02;;;16.35;;
62832;SDS011;48891;49.220;6.920;2024-02-26T08:35:29;22.80;;;15.80;;
62832;SDS011;48891;49.220;6.920;2024-02-26T08:37:54;22.23;;;16.85;;
62832;SDS011;48891;49.220;6.920;2024-02-26T08:40:19;22.35;;;16.58;;
62832;SDS011;48891;49.220;6.920;2024-02-26T08:42:45;23.23;;;15.63;;
62832;SDS011;48891;49.220;6.920;2024-02-26T08:45:10;21.98;;;15.55;;
62832;SDS011;48891;49.220;6.920;2024-02-26T08:47:36;23.55;;;16.15;;
62832;SDS011;48891;49.220;6.920;2024-02-26T08:50:01;22.75;;;16.15;;
62832;SDS011;48891;49.220;6.920;2024-02-26T08:52:27;21.50;;;15.68;;
62832;SDS011;48891;49.220;6.920;2024-02-26T08:54:52;22.10;;;15.82;;
62832;SDS011;48891;49.220;6.920;2024-02-26T08:57:17;22.52;;;15.38;;
62832;SDS011;48891;49.220;6.920;2024-02-26T08:59:42;21.65;;;16.10;;
62832;SDS011;48891;49.220;6.920;2024-02-26T09:02:08;21.42;;;15.60;;
62832;SDS011;48891;49.220;6.920;2024-02-26T09:04:33;22.70;;;15.90;;
62832;SDS011;48891;49.220;6.920;2024-02-26T09:06:59;22.13;;;16.10;;
62832;SDS011;48891;49.220;6.920;2024-02-26T09:09:24;21.70;;;15.18;;
62832;SDS011;48891;49.220;6.920;2024-02-26T09:11:49;22.13;;;15.80;;
62832;SDS011;48891;49.220;6.920;2024-02-26T09:14:15;24.15;;;16.05;;
62832;SDS011;48891;49.220;6.920;2024-02-26T09:16:40;21.55;;;15.82;;
62832;SDS011;48891;49.220;6.920;2024-02-26T09:19:05;23.02;;;16.48;;
62832;SDS011;48891;49.220;6.920;2024-02-26T09:21:30;21.35;;;15.55;;
62832;SDS011;48891;49.220;6.920;2024-02-26T09:23:55;22.92;;;15.35;;
62832;SDS011;48891;49.220;6.920;2024-02-26T09:26:21;24.48;;;15.40;;
62832;SDS011;48891;49.220;6.920;2024-02-26T09:28:46;22.98;;;15.80;;
62832;SDS011;48891;49.220;6.920;2024-02-26T09:31:11;22.83;;;14.93;;
62832;SDS011;48891;49.220;6.920;2024-02-26T09:33:37;21.13;;;14.95;;
62832;SDS011;48891;49.220;6.920;2024-02-26T09:36:02;22.35;;;15.15;;
62832;SDS011;48891;49.220;6.920;2024-02-26T09:38:30;23.20;;;15.02;;
62832;SDS011;48891;49.220;6.920;2024-02-26T09:40:58;20.13;;;14.10;;
62832;SDS011;48891;49.220;6.920;2024-02-26T09:43:23;21.48;;;14.70;;
62832;SDS011;48891;49.220;6.920;2024-02-26T09:45:53;21.75;;;15.02;;
62832;SDS011;48891;49.220;6.920;2024-02-26T09:48:19;21.77;;;14.98;;
62832;SDS011;48891;49.220;6.920;2024-02-26T09:50:44;21.27;;;15.23;;
62832;SDS011;48891;49.220;6.920;2024-02-26T09:53:11;22.70;;;15.57;;
62832;SDS011;48891;49.220;6.920;2024-02-26T09:55:37;21.95;;;14.90;;
62832;SDS011;48891;49.220;6.920;2024-02-26T09:58:03;23.60;;;15.23;;
62832;SDS011;48891;49.220;6.920;2024-02-26T10:00:31;21.95;;;15.05;;
62832;SDS011;48891;49.220;6.920;2024-02-26T10:02:56;20.70;;;14.73;;
62832;SDS011;48891;49.220;6.920;2024-02-26T10:05:23;19.95;;;14.35;;
62832;SDS011;48891;49.220;6.920;2024-02-26T10:07:49;21.90;;;15.40;;
62832;SDS011;48891;49.220;6.920;2024-02-26T10:10:16;20.13;;;14.30;;
62832;SDS011;48891;49.220;6.920;2024-02-26T10:12:42;20.40;;;14.05;;
62832;SDS011;48891;49.220;6.920;2024-02-26T10:15:08;21.80;;;15.18;;
62832;SDS011;48891;49.220;6.920;2024-02-26T10:17:33;21.52;;;14.88;;
62832;SDS011;48891;49.220;6.920;2024-02-26T10:20:12;21.73;;;14.98;;
62832;SDS011;48891;49.220;6.920;2024-02-26T10:22:41;20.52;;;14.48;;
62832;SDS011;48891;49.220;6.920;2024-02-26T10:25:07;21.67;;;14.70;;
62832;SDS011;48891;49.220;6.920;2024-02-26T10:27:32;20.92;;;14.35;;
62832;SDS011;48891;49.220;6.920;2024-02-26T10:30:04;21.13;;;14.35;;
62832;SDS011;48891;49.220;6.920;2024-02-26T10:32:40;21.25;;;14.68;;
62832;SDS011;48891;49.220;6.920;2024-02-26T10:35:08;18.00;;;13.82;;
62832;SDS011;48891;49.220;6.920;2024-02-26T10:37:33;19.33;;;14.18;;
62832;SDS011;48891;49.220;6.920;2024-02-26T10:39:59;20.05;;;14.27;;
62832;SDS011;48891;49.220;6.920;2024-02-26T10:42:25;20.50;;;14.25;;
62832;SDS011;48891;49.220;6.920;2024-02-26T10:44:50;20.30;;;14.27;;
62832;SDS011;48891;49.220;6.920;2024-02-26T10:47:16;20.88;;;14.70;;
62832;SDS011;48891;49.220;6.920;2024-02-26T10:49:44;19.45;;;13.70;;
62832;SDS011;48891;49.220;6.920;2024-02-26T10:52:12;19.63;;;13.82;;
62832;SDS011;48891;49.220;6.920;2024-02-26T10:54:39;19.80;;;14.18;;
62832;SDS011;48891;49.220;6.920;2024-02-26T10:57:06;20.85;;;14.75;;
62832;SDS011;48891;49.220;6.920;2024-02-26T10:59:34;21.15;;;14.48;;
62832;SDS011;48891;49.220;6.920;2024-02-26T11:02:01;21.75;;;15.07;;
62832;SDS011;48891;49.220;6.920;2024-02-26T11:04:27;20.65;;;14.32;;
62832;SDS011;48891;49.220;6.920;2024-02-26T11:06:54;21.20;;;13.95;;
62832;SDS011;48891;49.220;6.920;2024-02-26T11:09:21;18.58;;;12.85;;
62832;SDS011;48891;49.220;6.920;2024-02-26T11:11:48;20.85;;;14.43;;
62832;SDS011;48891;49.220;6.920;2024-02-26T11:14:15;20.92;;;14.15;;
62832;SDS011;48891;49.220;6.920;2024-02-26T11:16:41;20.25;;;14.07;;
62832;SDS011;48891;49.220;6.920;2024-02-26T11:19:08;19.13;;;13.57;;
62832;SDS011;48891;49.220;6.920;2024-02-26T11:21:34;18.48;;;13.90;;
62832;SDS011;48891;49.220;6.920;2024-02-26T11:24:00;17.95;;;13.95;;
62832;SDS011;48891;49.220;6.920;2024-02-26T11:26:27;18.85;;;13.50;;
62832;SDS011;48891;49.220;6.920;2024-02-26T11:28:53;20.45;;;14.02;;
62832;SDS011;48891;49.220;6.920;2024-02-26T11:31:19;19.13;;;13.38;;
62832;SDS011;48891;49.220;6.920;2024-02-26T11:33:44;19.58;;;13.43;;
62832;SDS011;48891;49.220;6.920;2024-02-26T11:36:11;19.38;;;13.85;;
62832;SDS011;48891;49.220;6.920;2024-02-26T11:38:37;19.20;;;13.30;;
62832;SDS011;48891;49.220;6.920;2024-02-26T11:41:04;16.83;;;12.30;;
62832;SDS011;48891;49.220;6.920;2024-02-26T11:43:51;18.30;;;13.82;;
62832;SDS011;48891;49.220;6.920;2024-02-26T11:48:53;19.00;;;13.52;;
62832;SDS011;48891;49.220;6.920;2024-02-26T11:51:24;19.48;;;13.38;;
62832;SDS011;48891;49.220;6.920;2024-02-26T11:53:50;18.35;;;13.75;;
62832;SDS011;48891;49.220;6.920;2024-02-26T11:58:44;18.15;;;13.13;;
62832;SDS011;48891;49.220;6.920;2024-02-26T12:04:13;19.63;;;13.50;;
62832;SDS011;48891;49.220;6.920;2024-02-26T12:07:02;18.90;;;12.93;;
62832;SDS011;48891;49.220;6.920;2024-02-26T12:09:31;20.63;;;13.13;;
62832;SDS011;48891;49.220;6.920;2024-02-26T12:11:57;18.60;;;13.25;;
62832;SDS011;48891;49.220;6.920;2024-02-26T12:14:26;19.13;;;13.45;;
62832;SDS011;48891;49.220;6.920;2024-02-26T12:16:51;19.17;;;13.55;;
62832;SDS011;48891;49.220;6.920;2024-02-26T12:19:17;17.63;;;13.13;;
62832;SDS011;48891;49.220;6.920;2024-02-26T12:21:42;18.65;;;13.23;;
62832;SDS011;48891;49.220;6.920;2024-02-26T12:24:11;18.50;;;13.20;;
62832;SDS011;48891;49.220;6.920;2024-02-26T12:26:39;17.05;;;12.25;;
62832;SDS011;48891;49.220;6.920;2024-02-26T12:29:05;19.70;;;13.55;;
62832;SDS011;48891;49.220;6.920;2024-02-26T12:31:31;18.38;;;13.35;;
62832;SDS011;48891;49.220;6.920;2024-02-26T12:33:57;18.70;;;12.90;;
62832;SDS011;48891;49.220;6.920;2024-02-26T12:36:23;18.65;;;13.25;;
62832;SDS011;48891;49.220;6.920;2024-02-26T12:38:50;18.48;;;13.48;;
62832;SDS011;48891;49.220;6.920;2024-02-26T12:41:16;16.40;;;11.70;;
62832;SDS011;48891;49.220;6.920;2024-02-26T12:43:41;17.77;;;12.57;;
62832;SDS011;48891;49.220;6.920;2024-02-26T12:46:06;18.00;;;12.85;;
62832;SDS011;48891;49.220;6.920;2024-02-26T12:48:32;18.58;;;12.32;;
62832;SDS011;48891;49.220;6.920;2024-02-26T12:50:57;18.30;;;12.77;;
62832;SDS011;48891;49.220;6.920;2024-02-26T12:53:22;17.88;;;12.90;;
62832;SDS011;48891;49.220;6.920;2024-02-26T12:55:48;18.55;;;13.20;;
62832;SDS011;48891;49.220;6.920;2024-02-26T12:58:13;17.85;;;13.02;;
62832;SDS011;48891;49.220;6.920;2024-02-26T13:00:39;18.20;;;12.18;;
62832;SDS011;48891;49.220;6.920;2024-02-26T13:03:05;17.50;;;12.38;;
62832;SDS011;48891;49.220;6.920;2024-02-26T13:05:30;18.40;;;12.57;;
62832;SDS011;48891;49.220;6.920;2024-02-26T13:07:56;19.05;;;13.10;;
62832;SDS011;48891;49.220;6.920;2024-02-26T13:10:21;17.05;;;12.43;;
62832;SDS011;48891;49.220;6.920;2024-02-26T13:12:48;18.15;;;12.15;;
62832;SDS011;48891;49.220;6.920;2024-02-26T13:15:15;18.40;;;12.40;;
62832;SDS011;48891;49.220;6.920;2024-02-26T13:17:42;18.85;;;12.45;;
62832;SDS011;48891;49.220;6.920;2024-02-26T13:20:08;17.30;;;12.32;;
62832;SDS011;48891;49.220;6.920;2024-02-26T13:22:34;18.08;;;12.77;;
62832;SDS011;48891;49.220;6.920;2024-02-26T13:24:59;17.60;;;12.40;;
62832;SDS011;48891;49.220;6.920;2024-02-26T13:27:25;17.73;;;12.45;;
62832;SDS011;48891;49.220;6.920;2024-02-26T13:30:04;17.33;;;12.60;;
62832;SDS011;48891;49.220;6.920;2024-02-26T13:32:34;17.15;;;12.65;;
62832;SDS011;48891;49.220;6.920;2024-02-26T13:35:04;18.15;;;12.63;;
62832;SDS011;48891;49.220;6.920;2024-02-26T13:37:36;17.75;;;12.25;;
62832;SDS011;48891;49.220;6.920;2024-02-26T13:40:09;17.50;;;11.55;;
62832;SDS011;48891;49.220;6.920;2024-02-26T13:42:36;16.50;;;11.50;;
62832;SDS011;48891;49.220;6.920;2024-02-26T13:45:04;16.70;;;12.98;;
62832;SDS011;48891;49.220;6.920;2024-02-26T13:47:30;18.20;;;12.77;;
62832;SDS011;48891;49.220;6.920;2024-02-26T13:49:55;17.58;;;12.48;;
62832;SDS011;48891;49.220;6.920;2024-02-26T13:52:22;16.65;;;12.00;;
62832;SDS011;48891;49.220;6.920;2024-02-26T13:54:47;17.88;;;12.63;;
62832;SDS011;48891;49.220;6.920;2024-02-26T13:57:13;17.52;;;12.48;;
62832;SDS011;48891;49.220;6.920;2024-02-26T13:59:38;15.60;;;11.38;;
62832;SDS011;48891;49.220;6.920;2024-02-26T14:02:03;17.83;;;12.57;;
62832;SDS011;48891;49.220;6.920;2024-02-26T14:04:29;16.75;;;12.38;;
62832;SDS011;48891;49.220;6.920;2024-02-26T14:06:54;17.10;;;12.38;;
62832;SDS011;48891;49.220;6.920;2024-02-26T14:09:20;15.98;;;11.60;;
62832;SDS011;48891;49.220;6.920;2024-02-26T14:11:45;17.00;;;11.75;;
62832;SDS011;48891;49.220;6.920;2024-02-26T14:14:10;17.00;;;12.20;;
62832;SDS011;48891;49.220;6.920;2024-02-26T14:16:36;17.17;;;12.00;;
62832;SDS011;48891;49.220;6.920;2024-02-26T14:19:01;19.00;;;12.32;;
62832;SDS011;48891;49.220;6.920;2024-02-26T14:21:26;17.20;;;11.38;;